LICD

Details ICAO LICD (LMP)
Name LAMPEDUSA
Region Italy
Timezone Europe/Rome (UTC+1.0)
Plans Departing 38
Arriving 71
Stats Elevation 70 ft / 21 m (AMSL)
Location 35.497966° 12.618077°
Runways 1
Magnetic Variation 2.714° E
Sunrise 2017-12-11 06:10:06 UTC / 2017-12-11 07:10:06 Local
Sunset 2017-12-11 15:58:21 UTC / 2017-12-11 16:58:21 Local
Advertisement - Login to hide

Runways

ID Width Length Bearing (true) Bearing (mag) Surface Threshold Offset Overrun Length
08 148 ft / 45 m 5,897 ft / 1,797 m 80.57° 77.86° Asphalt 0 ft / 0 m 0 ft / 0 m
26 148 ft / 45 m 5,897 ft / 1,797 m 260.59° 257.88° Asphalt 0 ft / 0 m 0 ft / 0 m

Approach Navaids

Runway Type Ident Frequency Range Bearing (true) Bearing (mag) Slope Elevation
26 Localiser ILMA 111.30 MHz 20 nm / 37 km 260.60° 257.89° - 70 ft / 21 m (AMSL)
26 DME ILMA 111.30 MHz 25 nm / 46 km - - - 70 ft / 21 m (AMSL)

Map

Weather


0- 5 10 15 20 25 30 35+ Temperature / ° C

Clouds and Precipitation
Forecast for 2017-12-11 12:00 UTC. Updated 7 minutes ago

Ground ~20,000 ft ~40,000 ft Winds

METAR

LICD 110650Z 21018KT CAVOK 16/08 Q1017

TAF

TAF TAF LICD 110500Z 1106/1206 20022G32KT 9999 SCT030

Frequencies

Tower 123.50 MHz INFO
Tower 122.10 MHz INFO
Warning: Do not use this data for real-world aviation or navigation. No guarantee of current accuracy is given.